Terminal Aerodrome Forecast
Issued by NWS Charleston, WV

Current Version | Previous Version | Graphics & Text | Print | Product List | Glossary On
Versions: 1 2 3 4 5 6 7 8 9 10 11 12 13 14 15 16 17 18 19 20 21 22 23 24 25 26 27 28 29
000
FTUS41 KRLX 312300
TAFBKW
TAF
KBKW 312336Z 0100/0124 23005KT P6SM SCT040 OVC060
     FM010200 27005KT P6SM SCT030 BKN040
      TEMPO 0102/0105 1SM SHRA BR BKN015
     FM010500 26004KT P6SM OVC045
     FM011700 26005KT P6SM SCT030
     FM012100 26006KT P6SM SCT035=

USA.gov is the U.S. government's official web portal to all federal, state and local government web resources and services.